Teniente Coronel Rafael Pabón Airport

Airport
ICAO code: 
SLVM
Summary
ICAO Region: 
CARSAM
Territory: 
Location: 
Vilamontes, Tarija
Serving: 
Villamontes
Elevation: 
1305 ft
Coordinates: 
Aerial View: 
21° 15' 18.832" S, 63° 24' 20.2" W
Metar
Observation
SLVM 181700Z 18008KT 9999 FEW025 OVC070 32/24 Q1009
Station
Villamontes
Date/Time
2022-01-18 17:00:00
Wind direction
180°
Wind speed
08 kts
Lowest cloud amount
few clouds
Temperature
32°C
Dew point
24°C
Humidity
62%
QNH
1009 hPa
Weather condition
n/a

Airport serving the city of Villamontes in the Gran Chaco Province of the Tarija Department of Bolivia.

Climatology

Humid sub tropical climate (Köppen climate classification Cwa).

Runways

Designator Length Width Surface Rops
18/36 1499 35 ASP No/No
Airport map: 
Aerial View: 

SKYbrary Partners:

Safety knowledge contributed by: